createdAt,value
2018-07-26T00:02:08.306Z,26.20
2018-07-26T00:06:12.025Z,26.10
2018-07-26T00:10:15.749Z,26.10
2018-07-26T00:14:19.447Z,26.00
2018-07-26T00:18:23.135Z,26.00
2018-07-26T00:22:26.830Z,26.00
2018-07-26T00:26:30.545Z,26.00
2018-07-26T00:30:34.294Z,25.90
2018-07-26T00:34:38.024Z,25.80
2018-07-26T00:38:41.715Z,25.80
2018-07-26T00:42:45.412Z,25.80
2018-07-26T00:46:49.141Z,25.70
2018-07-26T00:50:52.851Z,25.70
2018-07-26T00:54:56.559Z,25.70
2018-07-26T00:59:00.373Z,25.60
2018-07-26T01:03:04.076Z,25.60
2018-07-26T01:07:07.884Z,25.60
2018-07-26T01:11:11.591Z,25.50
2018-07-26T01:15:15.323Z,25.50
2018-07-26T01:19:19.098Z,25.40
2018-07-26T01:23:22.843Z,25.30
2018-07-26T01:27:26.601Z,25.30
2018-07-26T01:31:30.368Z,25.30
2018-07-26T01:35:34.059Z,25.20
2018-07-26T01:39:37.899Z,25.10
2018-07-26T01:43:52.897Z,25.10
2018-07-26T01:47:56.583Z,25.00
2018-07-26T01:52:00.298Z,25.00
2018-07-26T01:56:04.072Z,24.90
2018-07-26T02:00:07.827Z,24.90
2018-07-26T02:04:11.477Z,24.80
2018-07-26T02:08:15.156Z,24.70
2018-07-26T02:12:18.977Z,24.70
2018-07-26T02:16:22.661Z,24.60
2018-07-26T02:20:26.335Z,24.60
2018-07-26T02:24:30.020Z,24.50
2018-07-26T02:28:33.824Z,24.40
2018-07-26T02:32:37.590Z,24.40
2018-07-26T02:36:41.322Z,24.30
2018-07-26T02:40:45.057Z,24.30
2018-07-26T02:44:48.727Z,24.20
2018-07-26T02:48:52.457Z,24.20
2018-07-26T02:52:56.159Z,24.10
2018-07-26T02:56:59.908Z,24.00
2018-07-26T03:01:03.636Z,24.00
2018-07-26T03:05:08.148Z,24.00
2018-07-26T03:09:11.849Z,23.90
2018-07-26T03:13:15.561Z,23.90
2018-07-26T03:17:19.229Z,23.90
2018-07-26T03:21:22.954Z,23.80
2018-07-26T03:25:26.623Z,23.80
2018-07-26T03:29:30.382Z,23.70
2018-07-26T03:33:34.144Z,23.70
2018-07-26T03:37:37.852Z,23.60
2018-07-26T03:41:41.528Z,23.60
2018-07-26T03:45:45.212Z,23.50
2018-07-26T03:49:48.937Z,23.50
2018-07-26T03:53:52.604Z,23.50
2018-07-26T03:57:56.417Z,23.40
2018-07-26T04:02:00.203Z,23.40
2018-07-26T04:06:03.976Z,23.40
2018-07-26T04:10:07.696Z,23.30
2018-07-26T04:14:11.548Z,23.30
2018-07-26T04:18:15.417Z,23.20
2018-07-26T04:22:19.113Z,23.20
2018-07-26T04:26:22.772Z,23.20
2018-07-26T04:30:26.505Z,23.20
2018-07-26T04:34:30.196Z,23.20
2018-07-26T04:38:33.871Z,23.20
2018-07-26T04:42:37.607Z,23.20
2018-07-26T04:46:41.294Z,23.20
2018-07-26T04:50:44.996Z,23.20
2018-07-26T04:54:48.692Z,23.20
2018-07-26T04:58:52.387Z,23.20
2018-07-26T05:02:56.209Z,23.20
2018-07-26T05:06:59.943Z,23.30
2018-07-26T05:11:03.638Z,23.30
2018-07-26T05:15:07.770Z,23.40
2018-07-26T05:19:11.549Z,23.40
2018-07-26T05:23:15.252Z,23.50
2018-07-26T05:27:19.011Z,23.50
2018-07-26T05:31:22.783Z,23.60
2018-07-26T05:35:26.525Z,23.60
2018-07-26T05:39:30.187Z,23.60
2018-07-26T05:43:34.859Z,23.70
2018-07-26T05:47:38.601Z,23.70
2018-07-26T05:51:42.236Z,23.70
2018-07-26T05:55:45.905Z,23.80
2018-07-26T05:59:49.605Z,23.90
2018-07-26T06:03:53.365Z,23.90
2018-07-26T06:07:57.036Z,24.00
2018-07-26T06:12:00.643Z,24.10
2018-07-26T06:16:04.341Z,24.20
2018-07-26T06:20:10.201Z,24.30
2018-07-26T06:24:13.849Z,24.30
2018-07-26T06:28:17.621Z,24.40
2018-07-26T06:32:21.232Z,24.50
2018-07-26T06:36:24.972Z,24.60
2018-07-26T06:40:28.621Z,24.80
2018-07-26T06:44:32.350Z,25.30
2018-07-26T06:48:36.094Z,26.20
2018-07-26T06:52:39.960Z,27.70
2018-07-26T06:56:43.694Z,29.20
2018-07-26T07:00:47.456Z,30.60
2018-07-26T07:04:59.827Z,31.80
2018-07-26T07:09:04.660Z,33.00
2018-07-26T07:13:08.450Z,34.00
2018-07-26T07:17:12.317Z,34.90
2018-07-26T07:21:16.449Z,35.60
2018-07-26T07:25:20.129Z,36.30
2018-07-26T07:29:23.871Z,36.80
2018-07-26T07:33:27.549Z,37.20
2018-07-26T07:37:31.366Z,37.60
2018-07-26T07:41:35.138Z,38.00
2018-07-26T07:45:38.865Z,38.30
2018-07-26T07:49:42.589Z,38.80
2018-07-26T07:53:46.269Z,39.10
2018-07-26T07:57:50.008Z,39.40
2018-07-26T08:01:53.757Z,39.70
2018-07-26T08:05:57.529Z,39.90
2018-07-26T08:10:01.293Z,40.10
2018-07-26T08:14:05.949Z,40.30
2018-07-26T08:18:09.691Z,40.40
2018-07-26T08:22:13.441Z,40.50
2018-07-26T08:26:17.200Z,40.60
2018-07-26T08:30:20.969Z,40.70
2018-07-26T08:34:24.659Z,40.90
2018-07-26T08:38:28.533Z,40.80
2018-07-26T08:42:32.329Z,40.80
2018-07-26T08:46:36.193Z,40.70
2018-07-26T08:50:39.941Z,40.60
2018-07-26T08:54:43.645Z,40.40
2018-07-26T08:58:48.052Z,39.90
2018-07-26T09:02:51.946Z,39.80
2018-07-26T09:06:55.906Z,39.50
2018-07-26T09:11:00.029Z,39.40
2018-07-26T09:15:03.900Z,39.20
2018-07-26T09:19:08.115Z,38.60
2018-07-26T09:27:15.219Z,36.90
2018-07-26T09:31:19.026Z,36.20
2018-07-26T09:35:23.604Z,35.70
2018-07-26T09:39:27.432Z,35.30
2018-07-26T09:43:31.201Z,35.00
2018-07-26T09:47:34.917Z,34.80
2018-07-26T09:51:38.633Z,34.50
2018-07-26T09:55:42.362Z,34.20
2018-07-26T09:59:46.081Z,34.10
2018-07-26T10:03:49.763Z,33.90
2018-07-26T10:07:53.506Z,33.80
2018-07-26T10:11:57.218Z,33.70
2018-07-26T10:16:01.168Z,33.70
2018-07-26T10:20:05.421Z,33.70
2018-07-26T10:24:09.185Z,33.60
2018-07-26T10:28:12.979Z,33.50
2018-07-26T10:32:16.678Z,33.50
2018-07-26T10:36:20.490Z,33.40
2018-07-26T10:40:24.162Z,33.50
2018-07-26T10:44:27.887Z,33.50
2018-07-26T10:48:31.603Z,33.50
2018-07-26T10:52:35.318Z,33.50
2018-07-26T10:56:39.059Z,33.50
2018-07-26T11:00:42.777Z,33.50
2018-07-26T11:04:46.492Z,33.60
2018-07-26T11:08:50.196Z,33.60
2018-07-26T11:12:53.910Z,33.60
2018-07-26T11:16:57.609Z,33.60
2018-07-26T11:21:01.282Z,33.60
2018-07-26T11:25:06.426Z,33.70
2018-07-26T11:29:10.213Z,33.70
2018-07-26T11:33:14.027Z,33.70
2018-07-26T11:37:17.814Z,33.80
2018-07-26T11:41:21.511Z,33.80
2018-07-26T11:45:25.268Z,33.80
2018-07-26T11:53:32.422Z,33.90
2018-07-26T11:57:36.195Z,34.00
2018-07-26T12:01:40.967Z,34.10
2018-07-26T12:05:44.915Z,34.10
2018-07-26T12:09:48.641Z,34.20
2018-07-26T12:13:52.564Z,34.30
2018-07-26T12:17:56.266Z,34.30
2018-07-26T12:22:01.208Z,34.50
2018-07-26T12:26:05.920Z,34.60
2018-07-26T12:30:10.596Z,34.60
2018-07-26T12:34:15.924Z,34.70
2018-07-26T12:38:19.679Z,34.80
2018-07-26T12:42:23.398Z,34.90
2018-07-26T12:46:27.389Z,35.00
2018-07-26T12:50:31.212Z,35.00
2018-07-26T12:54:35.393Z,35.10
2018-07-26T12:58:39.301Z,35.20
2018-07-26T13:02:43.100Z,35.30
2018-07-26T13:06:47.273Z,35.50
2018-07-26T13:10:51.029Z,35.50
2018-07-26T13:14:54.948Z,35.60
2018-07-26T13:18:58.673Z,35.70
2018-07-26T13:23:02.503Z,35.80
2018-07-26T13:27:06.666Z,35.90
2018-07-26T13:31:10.395Z,35.90
2018-07-26T13:35:14.213Z,36.00
2018-07-26T13:39:17.996Z,36.00
2018-07-26T13:43:22.081Z,36.00
2018-07-26T13:47:25.855Z,36.10
2018-07-26T13:51:29.656Z,36.10
2018-07-26T13:55:33.366Z,36.30
2018-07-26T13:59:37.085Z,36.30
2018-07-26T14:03:40.797Z,36.20
2018-07-26T14:07:44.492Z,36.30
2018-07-26T14:11:48.207Z,36.30
2018-07-26T14:15:52.039Z,36.30
2018-07-26T14:19:55.750Z,36.40
2018-07-26T14:24:03.237Z,36.30
2018-07-26T14:28:06.887Z,36.30
2018-07-26T14:32:10.583Z,36.30
2018-07-26T14:36:14.328Z,36.40
2018-07-26T14:40:18.093Z,36.40
2018-07-26T14:44:21.951Z,36.40
2018-07-26T14:48:25.657Z,36.30
2018-07-26T14:52:29.366Z,36.30
2018-07-26T14:56:33.220Z,36.40
2018-07-26T15:00:37.116Z,36.50
2018-07-26T15:04:40.805Z,36.50
2018-07-26T15:08:44.508Z,36.40
2018-07-26T15:12:48.173Z,36.40
2018-07-26T15:16:51.881Z,36.50
2018-07-26T15:20:55.635Z,36.40
2018-07-26T15:24:59.379Z,36.30
2018-07-26T15:29:03.042Z,36.20
2018-07-26T15:33:06.787Z,36.10
2018-07-26T15:37:10.519Z,36.20
2018-07-26T15:41:14.302Z,36.10
2018-07-26T15:45:18.019Z,36.10
2018-07-26T15:49:21.736Z,36.10
2018-07-26T15:53:25.495Z,36.00
2018-07-26T15:57:29.215Z,36.10
2018-07-26T16:01:33.010Z,36.10
2018-07-26T16:05:36.804Z,36.10
2018-07-26T16:09:40.473Z,36.00
2018-07-26T16:13:44.222Z,36.00
2018-07-26T16:17:48.115Z,35.90
2018-07-26T16:21:51.685Z,35.90
2018-07-26T16:25:55.478Z,35.90
2018-07-26T16:29:59.170Z,35.80
2018-07-26T16:34:02.956Z,35.80
2018-07-26T16:38:07.213Z,35.80
2018-07-26T16:42:11.114Z,35.80
2018-07-26T16:46:14.858Z,35.70
2018-07-26T16:50:18.536Z,35.60
2018-07-26T16:54:22.270Z,35.50
2018-07-26T16:58:26.113Z,35.40
2018-07-26T17:02:29.841Z,35.40
2018-07-26T17:06:33.581Z,35.40
2018-07-26T17:10:37.313Z,35.40
2018-07-26T17:14:41.057Z,35.30
2018-07-26T17:18:44.867Z,35.20
2018-07-26T17:22:48.600Z,35.10
2018-07-26T17:26:52.329Z,35.00
2018-07-26T17:30:56.059Z,34.80
2018-07-26T17:34:59.809Z,34.80
2018-07-26T17:39:04.331Z,34.70
2018-07-26T17:43:08.107Z,34.70
2018-07-26T17:47:11.835Z,34.60
2018-07-26T17:51:15.622Z,34.50
2018-07-26T17:55:19.404Z,34.60
2018-07-26T17:59:23.169Z,34.50
2018-07-26T18:03:26.861Z,34.40
2018-07-26T18:07:30.597Z,34.30
2018-07-26T18:11:34.362Z,34.20
2018-07-26T18:15:38.033Z,34.10
2018-07-26T18:19:41.757Z,34.00
2018-07-26T18:23:45.485Z,33.90
2018-07-26T18:27:49.198Z,33.80
2018-07-26T18:31:53.035Z,33.70
2018-07-26T18:35:56.664Z,33.60
2018-07-26T18:40:00.410Z,33.50
2018-07-26T18:44:04.623Z,33.40
2018-07-26T18:48:08.340Z,33.20
2018-07-26T18:52:12.136Z,33.10
2018-07-26T18:56:15.892Z,32.90
2018-07-26T19:00:19.630Z,32.80
2018-07-26T19:04:23.335Z,32.70
2018-07-26T19:08:27.080Z,32.60
2018-07-26T19:12:30.843Z,32.50
2018-07-26T19:16:34.568Z,32.40
2018-07-26T19:20:38.397Z,32.30
2018-07-26T19:24:42.205Z,32.10
2018-07-26T19:28:45.943Z,32.00
2018-07-26T19:32:49.678Z,31.90
2018-07-26T19:36:53.380Z,31.80
2018-07-26T19:40:57.103Z,31.60
2018-07-26T19:45:01.112Z,31.50
2018-07-26T19:49:04.867Z,31.30
2018-07-26T19:53:08.677Z,31.20
2018-07-26T19:57:12.429Z,31.00
2018-07-26T20:01:16.169Z,30.90
2018-07-26T20:05:19.938Z,30.80
2018-07-26T20:09:23.665Z,30.60
2018-07-26T20:13:27.398Z,30.40
2018-07-26T20:17:31.069Z,30.30
2018-07-26T20:21:34.784Z,30.20
2018-07-26T20:25:45.314Z,30.10
2018-07-26T20:29:49.043Z,29.90
2018-07-26T20:33:52.784Z,29.80
2018-07-26T20:37:56.667Z,29.60
2018-07-26T20:42:00.453Z,29.50
2018-07-26T20:46:04.234Z,29.40
2018-07-26T20:50:08.819Z,29.30
2018-07-26T20:54:12.547Z,29.20
2018-07-26T20:58:16.268Z,29.10
2018-07-26T21:02:20.075Z,29.00
2018-07-26T21:06:23.820Z,28.80
2018-07-26T21:10:27.590Z,28.70
2018-07-26T21:14:31.326Z,28.60
2018-07-26T21:18:35.093Z,28.50
2018-07-26T21:22:38.807Z,28.50
2018-07-26T21:26:42.542Z,28.30
2018-07-26T21:30:46.288Z,28.30
2018-07-26T21:34:50.084Z,28.20
2018-07-26T21:38:53.821Z,28.10
2018-07-26T21:42:57.562Z,28.00
2018-07-26T21:47:01.312Z,27.90
2018-07-26T21:51:08.060Z,27.80
2018-07-26T21:55:11.808Z,27.70
2018-07-26T21:59:15.585Z,27.60
2018-07-26T22:03:19.330Z,27.60
2018-07-26T22:07:23.058Z,27.50
2018-07-26T22:11:26.851Z,27.40
2018-07-26T22:15:30.581Z,27.30
2018-07-26T22:19:34.299Z,27.30
2018-07-26T22:23:37.993Z,27.20
2018-07-26T22:27:41.885Z,27.10
2018-07-26T22:31:45.593Z,27.10
2018-07-26T22:35:49.337Z,27.00
2018-07-26T22:39:53.042Z,26.90
2018-07-26T22:43:56.837Z,26.80
2018-07-26T22:48:00.570Z,26.70
2018-07-26T22:52:04.363Z,26.70
2018-07-26T22:56:08.067Z,26.60
2018-07-26T23:00:11.853Z,26.60
2018-07-26T23:04:15.540Z,26.50
2018-07-26T23:08:19.310Z,26.50
2018-07-26T23:12:23.073Z,26.40
2018-07-26T23:16:26.836Z,26.40
2018-07-26T23:20:30.544Z,26.40
2018-07-26T23:24:34.233Z,26.40
2018-07-26T23:28:37.999Z,26.40
2018-07-26T23:32:41.794Z,26.30
2018-07-26T23:36:45.498Z,26.30
2018-07-26T23:40:49.300Z,26.20
2018-07-26T23:44:52.970Z,26.20
2018-07-26T23:48:56.696Z,26.20
2018-07-26T23:53:00.434Z,26.20
2018-07-26T23:57:04.323Z,26.20
